메인 페이지
METAR-TAF:

METAR-TAF

공항 :

Montrose Regional Airport

Montrose, 콜로라도, 미국

위도: 38-30-18N, 경도: 107-53-51W, 고도: 1755m

현재 날씨관측

예보는 55분 전, 19:53시(UTC)에 발표되었습니다.
서북서5kt
온도 6°C
습도 33%
기압 1025 hPa
시정: 16.1km
맑음

METAR: KMTJ 191953Z AUTO 30005KT 10SM CLR 06/M09 A3027 RMK AO2 SLP253 T00561094

시각: 13:48 (20:48 UTC)

예보

예보는 3 시간 28분 전, 17:20시(UTC)에 발표되었습니다.
예보 대상 시간: 19일 18시부터 20일 18시까지 (UTC)
북북서5kt
시정: 10km
맑음
20일 0200시부터 (UTC)
남동6kt
시정: 10km
맑음

TAF: KMTJ 191720Z 1918/2018 34005KT P6SM SKC FM200200 14006KT P6SM SKC

4,000개 이상의 공항 관측 자료 및 예보 (METAR 및 TAF 보고).

지도상에서 검색 가능한 기상관측소가 노란 점과 빨간 점으로 표시되어 있습니다.

기상관측소 명을 보려면 표시 위로 마우스를 이동하세요.

날씨 관측과 예보를 보려면 클릭하세요.

지도 변경 : 확대하려면 엑스 표시가 있는 녹색 버튼, 축소하려면 빼기 표시가 있는 녹색 버튼, 다음 페이지의 지도를 보려면 녹색 화살표를 클릭하세요.


METAR-TAF: